sensor_id;sensor_type;location;lat;lon;timestamp;P1;durP1;ratioP1;P2;durP2;ratioP2
23714;SDS011;12036;50.858;4.472;2022-12-19T00:01:55;29.30;;;12.50;;
23714;SDS011;12036;50.858;4.472;2022-12-19T00:04:20;20.10;;;9.20;;
23714;SDS011;12036;50.858;4.472;2022-12-19T00:06:46;25.52;;;11.02;;
23714;SDS011;12036;50.858;4.472;2022-12-19T00:09:12;22.08;;;11.90;;
23714;SDS011;12036;50.858;4.472;2022-12-19T00:11:37;25.40;;;11.73;;
23714;SDS011;12036;50.858;4.472;2022-12-19T00:14:04;25.45;;;12.43;;
23714;SDS011;12036;50.858;4.472;2022-12-19T00:16:30;23.83;;;11.13;;
23714;SDS011;12036;50.858;4.472;2022-12-19T00:18:57;25.60;;;11.57;;
23714;SDS011;12036;50.858;4.472;2022-12-19T00:21:27;26.75;;;12.13;;
23714;SDS011;12036;50.858;4.472;2022-12-19T00:23:55;22.02;;;10.93;;
23714;SDS011;12036;50.858;4.472;2022-12-19T00:26:22;22.48;;;11.32;;
23714;SDS011;12036;50.858;4.472;2022-12-19T00:28:51;24.83;;;10.00;;
23714;SDS011;12036;50.858;4.472;2022-12-19T00:31:21;23.30;;;10.68;;
23714;SDS011;12036;50.858;4.472;2022-12-19T00:33:47;24.38;;;11.82;;
23714;SDS011;12036;50.858;4.472;2022-12-19T00:36:17;23.65;;;11.43;;
23714;SDS011;12036;50.858;4.472;2022-12-19T00:38:48;21.92;;;10.18;;
23714;SDS011;12036;50.858;4.472;2022-12-19T00:41:33;23.35;;;11.13;;
23714;SDS011;12036;50.858;4.472;2022-12-19T00:44:02;21.38;;;10.02;;
23714;SDS011;12036;50.858;4.472;2022-12-19T00:46:29;21.95;;;11.13;;
23714;SDS011;12036;50.858;4.472;2022-12-19T00:48:56;22.30;;;11.20;;
23714;SDS011;12036;50.858;4.472;2022-12-19T00:51:23;23.15;;;10.57;;
23714;SDS011;12036;50.858;4.472;2022-12-19T00:53:51;28.20;;;10.95;;
23714;SDS011;12036;50.858;4.472;2022-12-19T00:56:19;19.10;;;8.90;;
23714;SDS011;12036;50.858;4.472;2022-12-19T00:58:46;27.98;;;12.13;;
23714;SDS011;12036;50.858;4.472;2022-12-19T01:01:14;22.92;;;11.30;;
23714;SDS011;12036;50.858;4.472;2022-12-19T01:03:41;18.80;;;9.00;;
23714;SDS011;12036;50.858;4.472;2022-12-19T01:06:07;22.75;;;10.55;;
23714;SDS011;12036;50.858;4.472;2022-12-19T01:08:33;19.90;;;9.63;;
23714;SDS011;12036;50.858;4.472;2022-12-19T01:10:59;24.20;;;10.80;;
23714;SDS011;12036;50.858;4.472;2022-12-19T01:13:25;20.75;;;10.00;;
23714;SDS011;12036;50.858;4.472;2022-12-19T01:15:52;17.30;;;8.23;;
23714;SDS011;12036;50.858;4.472;2022-12-19T01:18:18;20.85;;;10.45;;
23714;SDS011;12036;50.858;4.472;2022-12-19T01:20:44;20.40;;;8.75;;
23714;SDS011;12036;50.858;4.472;2022-12-19T01:23:14;21.08;;;9.52;;
23714;SDS011;12036;50.858;4.472;2022-12-19T01:25:41;21.48;;;9.65;;
23714;SDS011;12036;50.858;4.472;2022-12-19T01:28:07;17.27;;;9.43;;
23714;SDS011;12036;50.858;4.472;2022-12-19T01:33:04;17.58;;;8.35;;
23714;SDS011;12036;50.858;4.472;2022-12-19T01:35:30;10.80;;;4.95;;
23714;SDS011;12036;50.858;4.472;2022-12-19T01:37:55;14.93;;;8.00;;
23714;SDS011;12036;50.858;4.472;2022-12-19T01:40:21;19.35;;;8.10;;
23714;SDS011;12036;50.858;4.472;2022-12-19T01:42:47;15.25;;;7.13;;
23714;SDS011;12036;50.858;4.472;2022-12-19T01:50:28;15.02;;;8.27;;
23714;SDS011;12036;50.858;4.472;2022-12-19T01:53:00;12.68;;;7.53;;
23714;SDS011;12036;50.858;4.472;2022-12-19T01:55:27;13.65;;;7.60;;
23714;SDS011;12036;50.858;4.472;2022-12-19T01:57:53;13.63;;;7.95;;
23714;SDS011;12036;50.858;4.472;2022-12-19T02:00:20;10.70;;;5.80;;
23714;SDS011;12036;50.858;4.472;2022-12-19T02:02:53;17.00;;;8.23;;
23714;SDS011;12036;50.858;4.472;2022-12-19T02:05:24;13.07;;;7.20;;
23714;SDS011;12036;50.858;4.472;2022-12-19T02:07:50;14.40;;;6.82;;
23714;SDS011;12036;50.858;4.472;2022-12-19T02:10:17;14.80;;;7.22;;
23714;SDS011;12036;50.858;4.472;2022-12-19T02:12:42;14.02;;;7.85;;
23714;SDS011;12036;50.858;4.472;2022-12-19T02:15:09;17.13;;;8.07;;
23714;SDS011;12036;50.858;4.472;2022-12-19T02:17:51;13.20;;;7.05;;
23714;SDS011;12036;50.858;4.472;2022-12-19T02:31:55;12.43;;;7.32;;
23714;SDS011;12036;50.858;4.472;2022-12-19T02:35:08;15.80;;;7.80;;
23714;SDS011;12036;50.858;4.472;2022-12-19T02:37:19;14.95;;;7.43;;
23714;SDS011;12036;50.858;4.472;2022-12-19T02:39:53;13.68;;;7.68;;
23714;SDS011;12036;50.858;4.472;2022-12-19T02:42:29;14.20;;;6.90;;
23714;SDS011;12036;50.858;4.472;2022-12-19T02:44:57;9.63;;;6.20;;
23714;SDS011;12036;50.858;4.472;2022-12-19T02:47:24;8.27;;;4.93;;
23714;SDS011;12036;50.858;4.472;2022-12-19T02:49:52;16.73;;;7.72;;
23714;SDS011;12036;50.858;4.472;2022-12-19T02:54:43;15.10;;;8.38;;
23714;SDS011;12036;50.858;4.472;2022-12-19T02:57:15;16.10;;;8.15;;
23714;SDS011;12036;50.858;4.472;2022-12-19T03:13:17;12.32;;;8.10;;
23714;SDS011;12036;50.858;4.472;2022-12-19T03:15:49;15.20;;;8.15;;
23714;SDS011;12036;50.858;4.472;2022-12-19T03:18:16;13.48;;;7.45;;
23714;SDS011;12036;50.858;4.472;2022-12-19T03:23:30;13.50;;;7.95;;
23714;SDS011;12036;50.858;4.472;2022-12-19T03:26:06;16.08;;;7.35;;
23714;SDS011;12036;50.858;4.472;2022-12-19T03:31:18;14.23;;;7.93;;
23714;SDS011;12036;50.858;4.472;2022-12-19T03:33:46;15.63;;;7.60;;
23714;SDS011;12036;50.858;4.472;2022-12-19T03:36:15;14.02;;;8.00;;
23714;SDS011;12036;50.858;4.472;2022-12-19T03:38:45;11.47;;;6.63;;
23714;SDS011;12036;50.858;4.472;2022-12-19T03:41:13;14.00;;;8.02;;
23714;SDS011;12036;50.858;4.472;2022-12-19T03:43:41;14.32;;;8.15;;
23714;SDS011;12036;50.858;4.472;2022-12-19T03:46:10;17.10;;;7.50;;
23714;SDS011;12036;50.858;4.472;2022-12-19T03:48:44;14.45;;;8.20;;
23714;SDS011;12036;50.858;4.472;2022-12-19T03:54:19;15.65;;;7.50;;
23714;SDS011;12036;50.858;4.472;2022-12-19T03:56:50;14.73;;;7.82;;
23714;SDS011;12036;50.858;4.472;2022-12-19T04:02:31;15.98;;;7.68;;
23714;SDS011;12036;50.858;4.472;2022-12-19T04:05:02;14.32;;;7.57;;
23714;SDS011;12036;50.858;4.472;2022-12-19T04:07:31;14.30;;;7.60;;
23714;SDS011;12036;50.858;4.472;2022-12-19T04:09:57;11.38;;;7.13;;
23714;SDS011;12036;50.858;4.472;2022-12-19T04:12:29;14.95;;;7.70;;
23714;SDS011;12036;50.858;4.472;2022-12-19T04:15:00;16.90;;;7.80;;
23714;SDS011;12036;50.858;4.472;2022-12-19T04:17:38;13.70;;;7.93;;
23714;SDS011;12036;50.858;4.472;2022-12-19T04:20:08;11.60;;;7.20;;
23714;SDS011;12036;50.858;4.472;2022-12-19T04:25:03;10.30;;;6.45;;
23714;SDS011;12036;50.858;4.472;2022-12-19T04:27:32;11.55;;;6.93;;
23714;SDS011;12036;50.858;4.472;2022-12-19T04:29:59;13.45;;;6.75;;
23714;SDS011;12036;50.858;4.472;2022-12-19T04:32:26;12.93;;;6.97;;
23714;SDS011;12036;50.858;4.472;2022-12-19T04:34:53;11.20;;;6.65;;
23714;SDS011;12036;50.858;4.472;2022-12-19T04:37:19;11.18;;;6.90;;
23714;SDS011;12036;50.858;4.472;2022-12-19T04:39:45;8.25;;;4.85;;
23714;SDS011;12036;50.858;4.472;2022-12-19T04:42:10;10.68;;;6.75;;
23714;SDS011;12036;50.858;4.472;2022-12-19T04:44:36;10.18;;;5.32;;
23714;SDS011;12036;50.858;4.472;2022-12-19T04:47:02;11.65;;;6.07;;
23714;SDS011;12036;50.858;4.472;2022-12-19T04:49:27;12.40;;;6.72;;
23714;SDS011;12036;50.858;4.472;2022-12-19T04:51:53;10.43;;;6.45;;
23714;SDS011;12036;50.858;4.472;2022-12-19T04:54:19;10.25;;;5.78;;
23714;SDS011;12036;50.858;4.472;2022-12-19T04:56:45;11.20;;;6.32;;
23714;SDS011;12036;50.858;4.472;2022-12-19T04:59:11;9.77;;;5.88;;
23714;SDS011;12036;50.858;4.472;2022-12-19T05:01:37;11.45;;;6.47;;
23714;SDS011;12036;50.858;4.472;2022-12-19T05:04:02;10.45;;;6.28;;
23714;SDS011;12036;50.858;4.472;2022-12-19T05:06:28;13.40;;;6.28;;
23714;SDS011;12036;50.858;4.472;2022-12-19T05:08:54;15.20;;;6.90;;
23714;SDS011;12036;50.858;4.472;2022-12-19T05:11:19;8.52;;;4.05;;
23714;SDS011;12036;50.858;4.472;2022-12-19T05:13:45;8.10;;;5.45;;
23714;SDS011;12036;50.858;4.472;2022-12-19T05:16:11;10.20;;;5.90;;
23714;SDS011;12036;50.858;4.472;2022-12-19T05:18:37;12.43;;;5.90;;
23714;SDS011;12036;50.858;4.472;2022-12-19T05:21:04;9.13;;;4.95;;
23714;SDS011;12036;50.858;4.472;2022-12-19T05:23:30;10.18;;;5.32;;
23714;SDS011;12036;50.858;4.472;2022-12-19T05:25:56;11.20;;;6.00;;
23714;SDS011;12036;50.858;4.472;2022-12-19T05:28:23;10.93;;;5.22;;
23714;SDS011;12036;50.858;4.472;2022-12-19T05:30:48;9.90;;;6.10;;
23714;SDS011;12036;50.858;4.472;2022-12-19T05:33:14;11.45;;;5.85;;
23714;SDS011;12036;50.858;4.472;2022-12-19T05:35:39;9.63;;;4.88;;
23714;SDS011;12036;50.858;4.472;2022-12-19T05:38:05;10.50;;;5.22;;
23714;SDS011;12036;50.858;4.472;2022-12-19T05:40:31;10.05;;;5.97;;
23714;SDS011;12036;50.858;4.472;2022-12-19T05:42:57;9.30;;;5.35;;
23714;SDS011;12036;50.858;4.472;2022-12-19T05:45:22;8.63;;;5.28;;
23714;SDS011;12036;50.858;4.472;2022-12-19T05:47:48;11.25;;;6.30;;
23714;SDS011;12036;50.858;4.472;2022-12-19T05:50:14;13.77;;;5.38;;
23714;SDS011;12036;50.858;4.472;2022-12-19T05:52:41;9.00;;;5.88;;
23714;SDS011;12036;50.858;4.472;2022-12-19T05:55:07;10.90;;;5.32;;
23714;SDS011;12036;50.858;4.472;2022-12-19T05:57:34;9.15;;;6.03;;
23714;SDS011;12036;50.858;4.472;2022-12-19T05:59:59;9.27;;;5.57;;
23714;SDS011;12036;50.858;4.472;2022-12-19T06:02:25;11.30;;;5.57;;
23714;SDS011;12036;50.858;4.472;2022-12-19T06:04:51;11.18;;;5.63;;
23714;SDS011;12036;50.858;4.472;2022-12-19T06:07:17;10.95;;;6.32;;
23714;SDS011;12036;50.858;4.472;2022-12-19T06:09:43;9.45;;;5.53;;
23714;SDS011;12036;50.858;4.472;2022-12-19T06:12:08;9.43;;;5.40;;
23714;SDS011;12036;50.858;4.472;2022-12-19T06:14:34;11.52;;;6.28;;
23714;SDS011;12036;50.858;4.472;2022-12-19T06:17:00;8.50;;;6.13;;
23714;SDS011;12036;50.858;4.472;2022-12-19T06:19:25;13.38;;;5.68;;
23714;SDS011;12036;50.858;4.472;2022-12-19T06:21:51;10.98;;;5.88;;
23714;SDS011;12036;50.858;4.472;2022-12-19T06:24:17;10.98;;;5.78;;
23714;SDS011;12036;50.858;4.472;2022-12-19T06:26:43;9.73;;;5.18;;
23714;SDS011;12036;50.858;4.472;2022-12-19T06:29:09;8.27;;;4.90;;
23714;SDS011;12036;50.858;4.472;2022-12-19T06:31:34;13.35;;;6.07;;
23714;SDS011;12036;50.858;4.472;2022-12-19T06:34:00;7.68;;;5.35;;
23714;SDS011;12036;50.858;4.472;2022-12-19T06:36:27;9.90;;;5.90;;
23714;SDS011;12036;50.858;4.472;2022-12-19T06:38:54;9.93;;;6.13;;
23714;SDS011;12036;50.858;4.472;2022-12-19T06:41:24;7.68;;;5.10;;
23714;SDS011;12036;50.858;4.472;2022-12-19T06:44:10;9.98;;;5.70;;
23714;SDS011;12036;50.858;4.472;2022-12-19T06:46:39;8.30;;;5.57;;
23714;SDS011;12036;50.858;4.472;2022-12-19T06:49:05;11.65;;;5.72;;
23714;SDS011;12036;50.858;4.472;2022-12-19T06:51:31;10.20;;;5.90;;
23714;SDS011;12036;50.858;4.472;2022-12-19T06:53:56;8.75;;;5.53;;
23714;SDS011;12036;50.858;4.472;2022-12-19T06:56:22;9.15;;;5.45;;
23714;SDS011;12036;50.858;4.472;2022-12-19T06:58:48;9.82;;;5.30;;
23714;SDS011;12036;50.858;4.472;2022-12-19T07:01:18;7.82;;;4.63;;
23714;SDS011;12036;50.858;4.472;2022-12-19T07:03:47;9.52;;;5.55;;
23714;SDS011;12036;50.858;4.472;2022-12-19T07:06:13;8.93;;;5.43;;
23714;SDS011;12036;50.858;4.472;2022-12-19T07:08:39;9.13;;;5.25;;
23714;SDS011;12036;50.858;4.472;2022-12-19T07:11:05;10.23;;;5.25;;
23714;SDS011;12036;50.858;4.472;2022-12-19T07:13:30;9.23;;;5.40;;
23714;SDS011;12036;50.858;4.472;2022-12-19T07:15:56;8.57;;;4.88;;
23714;SDS011;12036;50.858;4.472;2022-12-19T07:18:27;11.88;;;5.22;;
23714;SDS011;12036;50.858;4.472;2022-12-19T07:20:54;9.20;;;5.30;;
23714;SDS011;12036;50.858;4.472;2022-12-19T07:23:20;8.98;;;5.32;;
23714;SDS011;12036;50.858;4.472;2022-12-19T07:25:46;10.55;;;4.95;;
23714;SDS011;12036;50.858;4.472;2022-12-19T07:28:12;8.43;;;5.18;;
23714;SDS011;12036;50.858;4.472;2022-12-19T07:30:39;9.20;;;3.80;;
23714;SDS011;12036;50.858;4.472;2022-12-19T07:33:04;7.82;;;4.28;;
23714;SDS011;12036;50.858;4.472;2022-12-19T07:35:30;5.97;;;4.40;;
23714;SDS011;12036;50.858;4.472;2022-12-19T07:38:05;11.25;;;4.63;;
23714;SDS011;12036;50.858;4.472;2022-12-19T07:40:31;7.75;;;4.60;;
23714;SDS011;12036;50.858;4.472;2022-12-19T07:42:58;6.05;;;4.43;;
23714;SDS011;12036;50.858;4.472;2022-12-19T07:45:25;9.88;;;4.55;;
23714;SDS011;12036;50.858;4.472;2022-12-19T07:47:51;7.95;;;4.57;;
23714;SDS011;12036;50.858;4.472;2022-12-19T07:50:16;8.90;;;5.25;;
23714;SDS011;12036;50.858;4.472;2022-12-19T07:52:42;10.95;;;5.03;;
23714;SDS011;12036;50.858;4.472;2022-12-19T07:55:07;10.77;;;4.68;;
23714;SDS011;12036;50.858;4.472;2022-12-19T07:57:33;8.32;;;4.68;;
23714;SDS011;12036;50.858;4.472;2022-12-19T07:59:59;9.15;;;4.90;;
23714;SDS011;12036;50.858;4.472;2022-12-19T08:02:25;7.60;;;4.80;;
23714;SDS011;12036;50.858;4.472;2022-12-19T08:04:50;6.93;;;4.00;;
23714;SDS011;12036;50.858;4.472;2022-12-19T08:07:16;5.97;;;4.35;;
23714;SDS011;12036;50.858;4.472;2022-12-19T08:09:42;8.35;;;4.30;;
23714;SDS011;12036;50.858;4.472;2022-12-19T08:12:07;6.32;;;4.57;;
23714;SDS011;12036;50.858;4.472;2022-12-19T08:14:34;8.73;;;4.00;;
23714;SDS011;12036;50.858;4.472;2022-12-19T08:17:00;6.80;;;4.32;;
23714;SDS011;12036;50.858;4.472;2022-12-19T08:19:25;6.78;;;3.53;;
23714;SDS011;12036;50.858;4.472;2022-12-19T08:21:51;7.45;;;3.97;;
23714;SDS011;12036;50.858;4.472;2022-12-19T08:24:17;7.78;;;4.50;;
23714;SDS011;12036;50.858;4.472;2022-12-19T08:26:42;6.72;;;3.63;;
23714;SDS011;12036;50.858;4.472;2022-12-19T08:29:08;7.43;;;4.78;;
23714;SDS011;12036;50.858;4.472;2022-12-19T08:31:34;6.97;;;4.00;;
23714;SDS011;12036;50.858;4.472;2022-12-19T08:34:00;7.32;;;4.35;;
23714;SDS011;12036;50.858;4.472;2022-12-19T08:36:25;10.50;;;4.13;;
23714;SDS011;12036;50.858;4.472;2022-12-19T08:38:51;5.22;;;3.70;;
23714;SDS011;12036;50.858;4.472;2022-12-19T08:41:17;6.18;;;3.95;;
23714;SDS011;12036;50.858;4.472;2022-12-19T08:43:49;8.00;;;4.07;;
23714;SDS011;12036;50.858;4.472;2022-12-19T08:46:17;6.68;;;4.40;;
23714;SDS011;12036;50.858;4.472;2022-12-19T08:48:43;6.88;;;3.88;;
23714;SDS011;12036;50.858;4.472;2022-12-19T08:51:09;7.15;;;2.35;;
23714;SDS011;12036;50.858;4.472;2022-12-19T08:53:37;6.60;;;4.05;;
23714;SDS011;12036;50.858;4.472;2022-12-19T08:56:14;6.28;;;3.55;;
23714;SDS011;12036;50.858;4.472;2022-12-19T08:58:41;9.30;;;3.17;;
23714;SDS011;12036;50.858;4.472;2022-12-19T09:01:08;4.57;;;2.97;;
23714;SDS011;12036;50.858;4.472;2022-12-19T09:03:38;7.63;;;3.42;;
23714;SDS011;12036;50.858;4.472;2022-12-19T09:06:04;4.80;;;3.63;;
23714;SDS011;12036;50.858;4.472;2022-12-19T09:08:31;7.30;;;4.00;;
23714;SDS011;12036;50.858;4.472;2022-12-19T09:10:58;6.10;;;3.85;;
23714;SDS011;12036;50.858;4.472;2022-12-19T09:13:28;5.90;;;3.33;;
23714;SDS011;12036;50.858;4.472;2022-12-19T09:16:01;7.65;;;3.70;;
23714;SDS011;12036;50.858;4.472;2022-12-19T09:18:28;4.95;;;3.80;;
23714;SDS011;12036;50.858;4.472;2022-12-19T09:20:55;7.05;;;3.67;;
23714;SDS011;12036;50.858;4.472;2022-12-19T09:23:22;6.57;;;3.67;;
23714;SDS011;12036;50.858;4.472;2022-12-19T09:25:51;6.85;;;3.53;;
23714;SDS011;12036;50.858;4.472;2022-12-19T09:28:17;6.65;;;3.33;;
23714;SDS011;12036;50.858;4.472;2022-12-19T09:30:43;4.88;;;3.50;;
23714;SDS011;12036;50.858;4.472;2022-12-19T09:33:09;3.90;;;2.80;;
23714;SDS011;12036;50.858;4.472;2022-12-19T09:35:35;7.38;;;3.00;;
23714;SDS011;12036;50.858;4.472;2022-12-19T09:38:01;7.72;;;3.97;;
23714;SDS011;12036;50.858;4.472;2022-12-19T09:40:27;8.07;;;3.90;;
23714;SDS011;12036;50.858;4.472;2022-12-19T09:43:07;5.03;;;3.63;;
23714;SDS011;12036;50.858;4.472;2022-12-19T09:45:48;7.07;;;3.90;;
23714;SDS011;12036;50.858;4.472;2022-12-19T09:48:15;4.28;;;3.17;;
23714;SDS011;12036;50.858;4.472;2022-12-19T09:53:56;6.32;;;3.90;;
23714;SDS011;12036;50.858;4.472;2022-12-19T09:56:34;5.63;;;3.67;;
23714;SDS011;12036;50.858;4.472;2022-12-19T09:59:07;6.55;;;3.85;;
23714;SDS011;12036;50.858;4.472;2022-12-19T10:05:01;5.93;;;3.67;;
23714;SDS011;12036;50.858;4.472;2022-12-19T10:07:43;5.95;;;4.22;;
23714;SDS011;12036;50.858;4.472;2022-12-19T10:10:13;8.02;;;3.72;;
23714;SDS011;12036;50.858;4.472;2022-12-19T10:12:45;7.07;;;3.17;;
23714;SDS011;12036;50.858;4.472;2022-12-19T10:15:24;5.15;;;3.50;;
23714;SDS011;12036;50.858;4.472;2022-12-19T10:18:22;4.95;;;3.00;;
23714;SDS011;12036;50.858;4.472;2022-12-19T10:21:06;9.48;;;3.22;;
23714;SDS011;12036;50.858;4.472;2022-12-19T10:26:18;3.85;;;3.08;;
23714;SDS011;12036;50.858;4.472;2022-12-19T10:33:48;5.13;;;2.88;;
23714;SDS011;12036;50.858;4.472;2022-12-19T10:36:22;6.15;;;3.25;;
23714;SDS011;12036;50.858;4.472;2022-12-19T10:41:30;4.13;;;2.95;;
23714;SDS011;12036;50.858;4.472;2022-12-19T10:44:04;6.05;;;2.92;;
23714;SDS011;12036;50.858;4.472;2022-12-19T10:46:39;2.92;;;2.55;;
23714;SDS011;12036;50.858;4.472;2022-12-19T10:54:25;4.40;;;2.35;;
23714;SDS011;12036;50.858;4.472;2022-12-19T11:02:40;3.88;;;2.50;;
23714;SDS011;12036;50.858;4.472;2022-12-19T11:05:29;4.85;;;2.50;;
23714;SDS011;12036;50.858;4.472;2022-12-19T11:08:18;2.53;;;2.30;;
23714;SDS011;12036;50.858;4.472;2022-12-19T11:10:47;7.50;;;2.30;;
23714;SDS011;12036;50.858;4.472;2022-12-19T11:13:21;2.65;;;1.98;;
23714;SDS011;12036;50.858;4.472;2022-12-19T11:15:50;6.15;;;2.50;;
23714;SDS011;12036;50.858;4.472;2022-12-19T11:21:00;3.88;;;2.08;;
23714;SDS011;12036;50.858;4.472;2022-12-19T11:23:32;4.88;;;1.98;;
23714;SDS011;12036;50.858;4.472;2022-12-19T11:26:00;2.22;;;1.85;;
23714;SDS011;12036;50.858;4.472;2022-12-19T11:28:33;8.98;;;2.58;;
23714;SDS011;12036;50.858;4.472;2022-12-19T11:33:44;3.90;;;1.90;;
23714;SDS011;12036;50.858;4.472;2022-12-19T11:36:10;4.03;;;2.33;;
23714;SDS011;12036;50.858;4.472;2022-12-19T11:38:57;4.65;;;2.60;;
23714;SDS011;12036;50.858;4.472;2022-12-19T11:41:35;4.15;;;1.90;;
23714;SDS011;12036;50.858;4.472;2022-12-19T11:44:18;2.70;;;2.13;;
23714;SDS011;12036;50.858;4.472;2022-12-19T11:46:52;4.93;;;1.80;;
23714;SDS011;12036;50.858;4.472;2022-12-19T11:49:29;5.55;;;2.20;;
23714;SDS011;12036;50.858;4.472;2022-12-19T11:52:08;7.28;;;2.40;;
23714;SDS011;12036;50.858;4.472;2022-12-19T11:57:44;3.80;;;1.80;;
23714;SDS011;12036;50.858;4.472;2022-12-19T12:00:11;3.25;;;1.92;;
23714;SDS011;12036;50.858;4.472;2022-12-19T12:05:23;4.90;;;2.50;;
23714;SDS011;12036;50.858;4.472;2022-12-19T12:08:24;6.05;;;2.40;;
23714;SDS011;12036;50.858;4.472;2022-12-19T12:10:58;2.67;;;1.88;;
23714;SDS011;12036;50.858;4.472;2022-12-19T12:16:16;2.45;;;1.90;;
23714;SDS011;12036;50.858;4.472;2022-12-19T12:24:16;3.70;;;1.83;;
23714;SDS011;12036;50.858;4.472;2022-12-19T12:26:48;3.85;;;2.20;;
23714;SDS011;12036;50.858;4.472;2022-12-19T12:29:29;4.55;;;2.05;;
23714;SDS011;12036;50.858;4.472;2022-12-19T12:45:46;3.45;;;2.08;;
23714;SDS011;12036;50.858;4.472;2022-12-19T12:48:20;3.63;;;1.90;;
23714;SDS011;12036;50.858;4.472;2022-12-19T12:50:47;4.00;;;1.88;;
23714;SDS011;12036;50.858;4.472;2022-12-19T12:53:15;2.75;;;2.03;;
23714;SDS011;12036;50.858;4.472;2022-12-19T12:55:44;2.88;;;2.10;;
23714;SDS011;12036;50.858;4.472;2022-12-19T13:01:36;3.20;;;1.83;;
23714;SDS011;12036;50.858;4.472;2022-12-19T13:09:18;4.35;;;1.63;;
23714;SDS011;12036;50.858;4.472;2022-12-19T13:11:49;4.13;;;1.70;;
23714;SDS011;12036;50.858;4.472;2022-12-19T13:14:43;2.53;;;1.98;;
23714;SDS011;12036;50.858;4.472;2022-12-19T13:19:53;2.53;;;1.80;;
23714;SDS011;12036;50.858;4.472;2022-12-19T13:22:21;6.18;;;2.17;;
23714;SDS011;12036;50.858;4.472;2022-12-19T13:24:54;5.30;;;2.17;;
23714;SDS011;12036;50.858;4.472;2022-12-19T13:37:43;4.80;;;1.40;;
23714;SDS011;12036;50.858;4.472;2022-12-19T13:40:31;3.92;;;1.70;;
23714;SDS011;12036;50.858;4.472;2022-12-19T13:46:00;5.85;;;1.70;;
23714;SDS011;12036;50.858;4.472;2022-12-19T13:48:34;3.40;;;1.73;;
23714;SDS011;12036;50.858;4.472;2022-12-19T13:51:14;2.20;;;1.50;;
23714;SDS011;12036;50.858;4.472;2022-12-19T13:53:40;2.40;;;1.60;;
23714;SDS011;12036;50.858;4.472;2022-12-19T13:58:35;3.13;;;1.55;;
23714;SDS011;12036;50.858;4.472;2022-12-19T14:01:08;2.33;;;1.60;;
23714;SDS011;12036;50.858;4.472;2022-12-19T14:03:41;5.80;;;1.58;;
23714;SDS011;12036;50.858;4.472;2022-12-19T14:06:14;2.80;;;1.88;;
23714;SDS011;12036;50.858;4.472;2022-12-19T14:08:52;3.55;;;2.00;;
23714;SDS011;12036;50.858;4.472;2022-12-19T14:11:23;2.22;;;1.70;;
23714;SDS011;12036;50.858;4.472;2022-12-19T14:13:55;4.18;;;1.83;;
23714;SDS011;12036;50.858;4.472;2022-12-19T14:16:43;5.53;;;1.73;;
23714;SDS011;12036;50.858;4.472;2022-12-19T14:19:17;2.30;;;1.45;;
23714;SDS011;12036;50.858;4.472;2022-12-19T14:21:47;4.70;;;1.50;;
23714;SDS011;12036;50.858;4.472;2022-12-19T14:24:22;2.95;;;1.50;;
23714;SDS011;12036;50.858;4.472;2022-12-19T14:26:59;3.08;;;1.77;;
23714;SDS011;12036;50.858;4.472;2022-12-19T14:29:29;2.28;;;1.50;;
23714;SDS011;12036;50.858;4.472;2022-12-19T14:31:59;2.72;;;1.38;;
23714;SDS011;12036;50.858;4.472;2022-12-19T14:34:26;2.55;;;1.50;;
23714;SDS011;12036;50.858;4.472;2022-12-19T14:36:56;4.18;;;1.48;;
23714;SDS011;12036;50.858;4.472;2022-12-19T14:39:30;3.50;;;1.67;;
23714;SDS011;12036;50.858;4.472;2022-12-19T14:42:04;2.83;;;1.58;;
23714;SDS011;12036;50.858;4.472;2022-12-19T14:44:55;2.17;;;1.65;;
23714;SDS011;12036;50.858;4.472;2022-12-19T14:49:47;1.88;;;1.50;;
23714;SDS011;12036;50.858;4.472;2022-12-19T14:57:44;4.13;;;1.83;;
23714;SDS011;12036;50.858;4.472;2022-12-19T15:00:25;3.55;;;1.70;;
23714;SDS011;12036;50.858;4.472;2022-12-19T15:02:56;3.00;;;1.75;;
23714;SDS011;12036;50.858;4.472;2022-12-19T15:05:26;2.80;;;2.03;;
23714;SDS011;12036;50.858;4.472;2022-12-19T15:07:53;4.43;;;1.67;;
23714;SDS011;12036;50.858;4.472;2022-12-19T15:10:22;3.22;;;1.90;;
23714;SDS011;12036;50.858;4.472;2022-12-19T15:18:25;2.42;;;1.60;;
23714;SDS011;12036;50.858;4.472;2022-12-19T15:21:01;4.68;;;1.60;;
23714;SDS011;12036;50.858;4.472;2022-12-19T15:23:28;2.83;;;1.70;;
23714;SDS011;12036;50.858;4.472;2022-12-19T15:25:55;3.90;;;1.77;;
23714;SDS011;12036;50.858;4.472;2022-12-19T15:28:26;3.75;;;2.08;;
23714;SDS011;12036;50.858;4.472;2022-12-19T15:31:03;2.95;;;1.88;;
23714;SDS011;12036;50.858;4.472;2022-12-19T15:33:44;2.55;;;1.75;;
23714;SDS011;12036;50.858;4.472;2022-12-19T15:36:09;2.80;;;1.50;;
23714;SDS011;12036;50.858;4.472;2022-12-19T15:38:35;2.65;;;1.60;;
23714;SDS011;12036;50.858;4.472;2022-12-19T15:41:00;2.58;;;2.00;;
23714;SDS011;12036;50.858;4.472;2022-12-19T15:43:26;3.30;;;2.00;;
23714;SDS011;12036;50.858;4.472;2022-12-19T15:45:56;5.35;;;1.92;;
23714;SDS011;12036;50.858;4.472;2022-12-19T15:48:22;3.30;;;1.92;;
23714;SDS011;12036;50.858;4.472;2022-12-19T15:50:48;2.83;;;1.90;;
23714;SDS011;12036;50.858;4.472;2022-12-19T15:53:27;3.30;;;1.95;;
23714;SDS011;12036;50.858;4.472;2022-12-19T15:55:55;7.30;;;2.15;;
23714;SDS011;12036;50.858;4.472;2022-12-19T15:58:22;3.72;;;2.08;;
23714;SDS011;12036;50.858;4.472;2022-12-19T16:00:51;4.57;;;2.00;;
23714;SDS011;12036;50.858;4.472;2022-12-19T16:03:19;4.22;;;2.28;;
23714;SDS011;12036;50.858;4.472;2022-12-19T16:05:46;5.28;;;2.28;;
23714;SDS011;12036;50.858;4.472;2022-12-19T16:08:13;3.20;;;2.10;;
23714;SDS011;12036;50.858;4.472;2022-12-19T16:10:40;3.80;;;2.05;;
23714;SDS011;12036;50.858;4.472;2022-12-19T16:13:15;4.43;;;2.00;;
23714;SDS011;12036;50.858;4.472;2022-12-19T16:15:44;3.20;;;1.98;;
23714;SDS011;12036;50.858;4.472;2022-12-19T16:18:11;1.98;;;1.60;;
23714;SDS011;12036;50.858;4.472;2022-12-19T16:20:38;4.60;;;2.13;;
23714;SDS011;12036;50.858;4.472;2022-12-19T16:23:05;4.10;;;1.80;;
23714;SDS011;12036;50.858;4.472;2022-12-19T16:28:14;3.00;;;2.10;;
23714;SDS011;12036;50.858;4.472;2022-12-19T16:30:44;6.15;;;2.40;;
23714;SDS011;12036;50.858;4.472;2022-12-19T16:33:20;5.80;;;2.97;;
23714;SDS011;12036;50.858;4.472;2022-12-19T16:35:47;4.32;;;2.25;;
23714;SDS011;12036;50.858;4.472;2022-12-19T16:38:14;5.97;;;3.20;;
23714;SDS011;12036;50.858;4.472;2022-12-19T16:40:41;6.78;;;3.75;;
23714;SDS011;12036;50.858;4.472;2022-12-19T16:43:26;5.28;;;3.42;;
23714;SDS011;12036;50.858;4.472;2022-12-19T16:46:05;4.88;;;2.10;;
23714;SDS011;12036;50.858;4.472;2022-12-19T16:48:32;3.50;;;2.28;;
23714;SDS011;12036;50.858;4.472;2022-12-19T16:50:59;4.30;;;2.17;;
23714;SDS011;12036;50.858;4.472;2022-12-19T16:53:25;4.18;;;2.25;;
23714;SDS011;12036;50.858;4.472;2022-12-19T16:55:51;5.30;;;2.50;;
23714;SDS011;12036;50.858;4.472;2022-12-19T16:58:20;3.40;;;2.58;;
23714;SDS011;12036;50.858;4.472;2022-12-19T17:00:48;3.72;;;2.58;;
23714;SDS011;12036;50.858;4.472;2022-12-19T17:06:11;3.38;;;2.55;;
23714;SDS011;12036;50.858;4.472;2022-12-19T17:08:38;5.88;;;2.47;;
23714;SDS011;12036;50.858;4.472;2022-12-19T17:11:04;4.55;;;2.40;;
23714;SDS011;12036;50.858;4.472;2022-12-19T17:13:32;3.55;;;2.03;;
23714;SDS011;12036;50.858;4.472;2022-12-19T17:15:58;4.00;;;2.30;;
23714;SDS011;12036;50.858;4.472;2022-12-19T17:18:26;3.03;;;1.92;;
23714;SDS011;12036;50.858;4.472;2022-12-19T17:20:53;2.60;;;2.08;;
23714;SDS011;12036;50.858;4.472;2022-12-19T17:23:20;4.82;;;3.13;;
23714;SDS011;12036;50.858;4.472;2022-12-19T17:25:47;10.63;;;5.00;;
23714;SDS011;12036;50.858;4.472;2022-12-19T17:28:14;4.57;;;2.65;;
23714;SDS011;12036;50.858;4.472;2022-12-19T17:30:40;3.65;;;2.47;;
23714;SDS011;12036;50.858;4.472;2022-12-19T17:33:11;6.15;;;3.28;;